Temp: 10.2°C   Baro: 992.1mb
  Wind: 2.0mph   Dir: SSE (148°)
  Rain: 2.4mm (1.8mm/hr)
  Solar: 0W/m2  Hum: 85%
 
Bath Spa Weather Station Historical Data
Daily Summary for August 11, 2019 Units:  Both    English   Metric
Daily Weekly Monthly Yearly Custom
  High: Low: Average:
Temperature: 60.3 °F /  15.7 °C 50.9 °F /  10.5 °C 56.5 °F /  13.6 °C
Dew Point: 57.2 °F /  14 °C 48.9 °F /  9.4 °C 54 °F /  12.2 °C
Humidity: 94% 88% 92%
Wind Speed: 12.4mph /  20km/h - 5.6mph /  9km/h
Wind Gust: 24mph /  38.6km/h - -
Wind- - WSW
Pressure: 29.79 in /  1008.7 hPa 29.61 in /  1002.6 hPa -
Precipitation: 0.65 in /  16.51 mm    
Historical Graphs
 
 
Tabular Data for August 11, 2019
Time Temperature Dew Point Pressure Wind Wind Speed Wind Gust Humidity Rainfall Rate (Hourly) solar
00:04 57.7 °F /  14.3 °C 55.1 °F /  12.8 °C 29.79in /  1008.7hPa SW 6.2mph /  10km/h 12mph /  19.3km/h 90.7% 0.03in /  0.76mm 0 W/m2
00:09 57.7 °F /  14.3 °C 55.2 °F /  12.9 °C 29.78in /  1008.4hPa SW 4.8mph /  7.7km/h 10mph /  16.1km/h 91% 0.02in /  0.51mm 0 W/m2
00:14 57.8 °F /  14.3 °C 55.1 °F /  12.8 °C 29.78in /  1008.4hPa SW 5.5mph /  8.9km/h 12mph /  19.3km/h 90.6% 0.02in /  0.51mm 0 W/m2
00:19 58 °F /  14.4 °C 55.1 °F /  12.8 °C 29.78in /  1008.4hPa SW 8.6mph /  13.8km/h 13mph /  20.9km/h 90% 0.02in /  0.51mm 0 W/m2
00:24 58.2 °F /  14.6 °C 55.3 °F /  12.9 °C 29.78in /  1008.4hPa SW 5.9mph /  9.5km/h 13mph /  20.9km/h 90% 0.02in /  0.51mm 0 W/m2
00:29 58.4 °F /  14.7 °C 55.4 °F /  13 °C 29.78in /  1008.4hPa SW 6.8mph /  10.9km/h 12mph /  19.3km/h 89.9% 0.02in /  0.51mm 0 W/m2
00:34 58.5 °F /  14.7 °C 55.2 °F /  12.9 °C 29.79in /  1008.7hPa WSW 7.1mph /  11.4km/h 14mph /  22.5km/h 89% 0.03in /  0.76mm 0 W/m2
00:39 58.1 °F /  14.5 °C 54.9 °F /  12.7 °C 29.79in /  1008.7hPa West 5.4mph /  8.7km/h 12mph /  19.3km/h 89.1% 0.04in /  1.02mm 0 W/m2
00:44 57.8 °F /  14.3 °C 54.9 °F /  12.7 °C 29.79in /  1008.7hPa WSW 5.1mph /  8.2km/h 12mph /  19.3km/h 89.9% 0.05in /  1.27mm 0 W/m2
00:49 57.7 °F /  14.3 °C 54.9 °F /  12.7 °C 29.78in /  1008.4hPa WSW 7.1mph /  11.4km/h 12mph /  19.3km/h 90% 0.05in /  1.27mm 0 W/m2
00:54 57.7 °F /  14.3 °C 55 °F /  12.8 °C 29.78in /  1008.4hPa WSW 3.5mph /  5.6km/h 12mph /  19.3km/h 90.3% 0.05in /  1.27mm 0 W/m2
00:59 57.7 °F /  14.3 °C 55.2 °F /  12.9 °C 29.78in /  1008.4hPa SW 5mph /  8km/h 12mph /  19.3km/h 91% 0.05in /  1.27mm 0 W/m2
01:04 57.7 °F /  14.3 °C 55.2 °F /  12.9 °C 29.78in /  1008.4hPa SW 5.3mph /  8.5km/h 10mph /  16.1km/h 91% 0.04in /  1.02mm 0 W/m2
01:09 57.7 °F /  14.3 °C 55.2 °F /  12.9 °C 29.78in /  1008.4hPa SW 5.2mph /  8.4km/h 12mph /  19.3km/h 91% 0.05in /  1.27mm 0 W/m2
01:14 57.6 °F /  14.2 °C 55 °F /  12.8 °C 29.78in /  1008.4hPa SW 5.3mph /  8.5km/h 12mph /  19.3km/h 91% 0.05in /  1.27mm 0 W/m2
01:19 57.6 °F /  14.2 °C 55.1 °F /  12.8 °C 29.78in /  1008.4hPa SW 9.8mph /  15.8km/h 16mph /  25.7km/h 91% 0.06in /  1.52mm 0 W/m2
01:24 57.6 °F /  14.2 °C 55 °F /  12.8 °C 29.78in /  1008.4hPa SW 6.2mph /  10km/h 15mph /  24.1km/h 91% 0.06in /  1.52mm 0 W/m2
01:29 57.6 °F /  14.2 °C 55 °F /  12.8 °C 29.78in /  1008.4hPa SW 7.6mph /  12.2km/h 15mph /  24.1km/h 91% 0.06in /  1.52mm 0 W/m2
01:34 57.6 °F /  14.2 °C 55 °F /  12.8 °C 29.78in /  1008.4hPa SW 6mph /  9.7km/h 15mph /  24.1km/h 91% 0.07in /  1.78mm 0 W/m2
01:39 57.6 °F /  14.2 °C 55 °F /  12.8 °C 29.78in /  1008.4hPa SW 5.3mph /  8.5km/h 12mph /  19.3km/h 91% 0.06in /  1.52mm 0 W/m2
01:44 57.6 °F /  14.2 °C 55 °F /  12.8 °C 29.78in /  1008.4hPa SW 7mph /  11.3km/h 14mph /  22.5km/h 91% 0.06in /  1.52mm 0 W/m2
01:49 57.6 °F /  14.2 °C 55 °F /  12.8 °C 29.78in /  1008.4hPa SW 6.4mph /  10.3km/h 13mph /  20.9km/h 91% 0.06in /  1.52mm 0 W/m2
01:54 57.6 °F /  14.2 °C 55 °F /  12.8 °C 29.78in /  1008.4hPa SW 8.1mph /  13km/h 16mph /  25.7km/h 91% 0.06in /  1.52mm 0 W/m2
01:59 57.6 °F /  14.2 °C 55 °F /  12.8 °C 29.78in /  1008.4hPa SW 7.4mph /  11.9km/h 15mph /  24.1km/h 91% 0.06in /  1.52mm 0 W/m2
02:04 57.6 °F /  14.2 °C 55 °F /  12.8 °C 29.78in /  1008.4hPa WSW 8.2mph /  13.2km/h 16mph /  25.7km/h 91% 0.07in /  1.78mm 0 W/m2
02:09 57.5 °F /  14.2 °C 55 °F /  12.8 °C 29.78in /  1008.4hPa SW 5.8mph /  9.3km/h 14mph /  22.5km/h 91% 0.07in /  1.78mm 0 W/m2
02:14 57.4 °F /  14.1 °C 54.9 °F /  12.7 °C 29.77in /  1008hPa SW 6.5mph /  10.5km/h 16mph /  25.7km/h 91.1% 0.07in /  1.78mm 0 W/m2
02:19 57.3 °F /  14.1 °C 55 °F /  12.8 °C 29.77in /  1008hPa SW 8.5mph /  13.7km/h 16mph /  25.7km/h 92% 0.07in /  1.78mm 0 W/m2
02:24 57.4 °F /  14.1 °C 54.9 °F /  12.7 °C 29.77in /  1008hPa SW 7.7mph /  12.4km/h 17mph /  27.4km/h 91.4% 0.07in /  1.78mm 0 W/m2
02:29 57.4 °F /  14.1 °C 54.9 °F /  12.7 °C 29.77in /  1008hPa SW 7mph /  11.3km/h 17mph /  27.4km/h 91.2% 0.06in /  1.52mm 0 W/m2
02:34 57.2 °F /  14 °C 54.9 °F /  12.7 °C 29.77in /  1008hPa SW 4.3mph /  6.9km/h 10mph /  16.1km/h 92% 0.06in /  1.52mm 0 W/m2
02:39 57.2 °F /  14 °C 54.9 °F /  12.7 °C 29.77in /  1008hPa SW 8.3mph /  13.4km/h 16mph /  25.7km/h 92% 0.06in /  1.52mm 0 W/m2
02:44 57.2 °F /  14 °C 54.9 °F /  12.7 °C 29.77in /  1008hPa SW 8.7mph /  14km/h 18mph /  29km/h 92% 0.06in /  1.52mm 0 W/m2
02:49 57.2 °F /  14 °C 54.9 °F /  12.7 °C 29.77in /  1008hPa SW 6.4mph /  10.3km/h 14mph /  22.5km/h 92% 0.05in /  1.27mm 0 W/m2
02:54 57.2 °F /  14 °C 54.9 °F /  12.7 °C 29.77in /  1008hPa WSW 6mph /  9.7km/h 14mph /  22.5km/h 92% 0.07in /  1.78mm 0 W/m2
02:59 57 °F /  13.9 °C 54.7 °F /  12.6 °C 29.76in /  1007.7hPa SW 6.6mph /  10.6km/h 13mph /  20.9km/h 92% 0.07in /  1.78mm 0 W/m2
03:04 57 °F /  13.9 °C 54.7 °F /  12.6 °C 29.76in /  1007.7hPa SW 5.6mph /  9km/h 13mph /  20.9km/h 92% 0.07in /  1.78mm 0 W/m2
03:09 57 °F /  13.9 °C 54.7 °F /  12.6 °C 29.76in /  1007.7hPa SW 5.1mph /  8.2km/h 12mph /  19.3km/h 92% 0.07in /  1.78mm 0 W/m2
03:14 56.9 °F /  13.8 °C 54.6 °F /  12.6 °C 29.75in /  1007.3hPa SW 6.3mph /  10.1km/h 15mph /  24.1km/h 92% 0.07in /  1.78mm 0 W/m2
03:19 56.8 °F /  13.8 °C 54.5 °F /  12.5 °C 29.75in /  1007.3hPa SW 3.7mph /  6km/h 15mph /  24.1km/h 92% 0.07in /  1.78mm 0 W/m2
03:24 56.9 °F /  13.8 °C 54.6 °F /  12.6 °C 29.75in /  1007.3hPa SW 6.3mph /  10.1km/h 12mph /  19.3km/h 92% 0.07in /  1.78mm 0 W/m2
03:29 56.9 °F /  13.8 °C 54.6 °F /  12.6 °C 29.75in /  1007.3hPa SW 5.9mph /  9.5km/h 12mph /  19.3km/h 92% 0.09in /  2.29mm 0 W/m2
03:34 56.8 °F /  13.8 °C 54.8 °F /  12.7 °C 29.75in /  1007.3hPa SW 4.4mph /  7.1km/h 12mph /  19.3km/h 92.7% 0.10in /  2.54mm 0 W/m2
03:39 56.8 °F /  13.8 °C 54.9 °F /  12.7 °C 29.74in /  1007hPa SSW 3.6mph /  5.8km/h 11mph /  17.7km/h 93% 0.12in /  3.05mm 0 W/m2
03:44 56.8 °F /  13.8 °C 54.9 °F /  12.7 °C 29.74in /  1007hPa SW 4.8mph /  7.7km/h 9mph /  14.5km/h 93% 0.12in /  3.05mm 0 W/m2
03:49 56.8 °F /  13.8 °C 54.9 °F /  12.7 °C 29.74in /  1007hPa WSW 8mph /  12.9km/h 17mph /  27.4km/h 93% 0.13in /  3.3mm 0 W/m2
03:54 56.8 °F /  13.8 °C 54.9 °F /  12.7 °C 29.75in /  1007.3hPa West 7.6mph /  12.2km/h 17mph /  27.4km/h 93% 0.12in /  3.05mm 0 W/m2
03:59 56.8 °F /  13.8 °C 54.9 °F /  12.7 °C 29.75in /  1007.3hPa West 6.5mph /  10.5km/h 15mph /  24.1km/h 93% 0.09in /  2.29mm 0 W/m2
04:04 56.8 °F /  13.8 °C 54.9 °F /  12.7 °C 29.74in /  1007hPa WSW 5.8mph /  9.3km/h 15mph /  24.1km/h 93% 0.11in /  2.79mm 0 W/m2
04:09 56.8 °F /  13.8 °C 54.9 °F /  12.7 °C 29.74in /  1007hPa WSW 5.7mph /  9.2km/h 12mph /  19.3km/h 93% 0.12in /  3.05mm 0 W/m2
04:14 56.8 °F /  13.8 °C 54.9 °F /  12.7 °C 29.74in /  1007hPa SW 6.1mph /  9.8km/h 12mph /  19.3km/h 93% 0.12in /  3.05mm 0 W/m2
04:19 56.8 °F /  13.8 °C 54.9 °F /  12.7 °C 29.74in /  1007hPa SW 6.9mph /  11.1km/h 14mph /  22.5km/h 93% 0.12in /  3.05mm 0 W/m2
04:24 56.8 °F /  13.8 °C 54.9 °F /  12.7 °C 29.73in /  1006.7hPa SW 5mph /  8km/h 14mph /  22.5km/h 93% 0.13in /  3.3mm 0 W/m2
04:29 56.8 °F /  13.8 °C 54.9 °F /  12.7 °C 29.73in /  1006.7hPa WSW 7.8mph /  12.6km/h 13mph /  20.9km/h 93% 0.13in /  3.3mm 0 W/m2
04:34 56.8 °F /  13.8 °C 54.9 °F /  12.7 °C 29.73in /  1006.7hPa SW 6.4mph /  10.3km/h 13mph /  20.9km/h 93% 0.12in /  3.05mm 0 W/m2
04:39 56.9 °F /  13.8 °C 55 °F /  12.8 °C 29.72in /  1006.3hPa SW 3.4mph /  5.5km/h 13mph /  20.9km/h 93% 0.09in /  2.29mm 0 W/m2
04:44 56.9 °F /  13.8 °C 54.9 °F /  12.7 °C 29.72in /  1006.3hPa SW 6mph /  9.7km/h 12mph /  19.3km/h 93% 0.08in /  2.03mm 0 W/m2
04:49 57 °F /  13.9 °C 55 °F /  12.8 °C 29.72in /  1006.3hPa SW 6.6mph /  10.6km/h 14mph /  22.5km/h 93% 0.08in /  2.03mm 0 W/m2
04:54 57 °F /  13.9 °C 55 °F /  12.8 °C 29.72in /  1006.3hPa SW 8.4mph /  13.5km/h 14mph /  22.5km/h 93% 0.08in /  2.03mm 0 W/m2
04:59 57.1 °F /  13.9 °C 55.1 °F /  12.8 °C 29.72in /  1006.3hPa SW 6.8mph /  10.9km/h 14mph /  22.5km/h 93% 0.08in /  2.03mm 0 W/m2
05:04 57.2 °F /  14 °C 55.2 °F /  12.9 °C 29.71in /  1006hPa SW 7.6mph /  12.2km/h 16mph /  25.7km/h 93% 0.07in /  1.78mm 0 W/m2
05:09 57.2 °F /  14 °C 55.2 °F /  12.9 °C 29.71in /  1006hPa SW 8mph /  12.9km/h 14mph /  22.5km/h 93% 0.05in /  1.27mm 0 W/m2
05:14 57.2 °F /  14 °C 55.1 °F /  12.8 °C 29.71in /  1006hPa SW 6.1mph /  9.8km/h 13mph /  20.9km/h 92.8% 0.04in /  1.02mm 0 W/m2
05:19 57.2 °F /  14 °C 54.9 °F /  12.7 °C 29.70in /  1005.6hPa SW 6.4mph /  10.3km/h 13mph /  20.9km/h 92.1% 0.04in /  1.02mm 0 W/m2
05:24 57.2 °F /  14 °C 54.9 °F /  12.7 °C 29.70in /  1005.6hPa SW 8.4mph /  13.5km/h 16mph /  25.7km/h 92% 0.02in /  0.51mm 0 W/m2
05:29 57.2 °F /  14 °C 54.9 °F /  12.7 °C 29.70in /  1005.6hPa SW 7.8mph /  12.6km/h 16mph /  25.7km/h 92% 0.02in /  0.51mm 0 W/m2
05:34 57.2 °F /  14 °C 54.9 °F /  12.7 °C 29.70in /  1005.6hPa SW 8.5mph /  13.7km/h 14mph /  22.5km/h 92% 0.02in /  0.51mm 0 W/m2
05:39 57.2 °F /  14 °C 54.9 °F /  12.7 °C 29.70in /  1005.6hPa SW 7.2mph /  11.6km/h 14mph /  22.5km/h 92% 0.02in /  0.51mm 0 W/m2
05:44 57.2 °F /  14 °C 54.9 °F /  12.7 °C 29.70in /  1005.6hPa SW 5.6mph /  9km/h 13mph /  20.9km/h 92% 0.02in /  0.51mm 0 W/m2
05:49 57.2 °F /  14 °C 54.9 °F /  12.7 °C 29.70in /  1005.6hPa SW 8.6mph /  13.8km/h 20mph /  32.2km/h 92% 0.02in /  0.51mm 0 W/m2
05:54 57.4 °F /  14.1 °C 55 °F /  12.8 °C 29.70in /  1005.6hPa SW 7.9mph /  12.7km/h 19mph /  30.6km/h 92% 0.02in /  0.51mm 0 W/m2
05:59 57.4 °F /  14.1 °C 55 °F /  12.8 °C 29.70in /  1005.6hPa SW 7.5mph /  12.1km/h 14mph /  22.5km/h 92% 0.02in /  0.51mm 0 W/m2
06:04 57.3 °F /  14.1 °C 55 °F /  12.8 °C 29.70in /  1005.6hPa SW 6.1mph /  9.8km/h 14mph /  22.5km/h 92% 0.02in /  0.51mm 0 W/m2
06:09 57.3 °F /  14.1 °C 55 °F /  12.8 °C 29.70in /  1005.6hPa SW 9.5mph /  15.3km/h 17mph /  27.4km/h 92% 0.02in /  0.51mm 0 W/m2
06:14 57.5 °F /  14.2 °C 55.1 °F /  12.8 °C 29.70in /  1005.6hPa SW 7.9mph /  12.7km/h 15mph /  24.1km/h 92% 0.02in /  0.51mm 0 W/m2
06:19 57.5 °F /  14.2 °C 55.1 °F /  12.8 °C 29.69in /  1005.3hPa SW 6.2mph /  10km/h 12mph /  19.3km/h 92% 0.03in /  0.76mm 0 W/m2
06:24 57.5 °F /  14.2 °C 55.1 °F /  12.8 °C 29.70in /  1005.6hPa SW 9.1mph /  14.6km/h 16mph /  25.7km/h 92% 0.03in /  0.76mm 0 W/m2
06:29 57.5 °F /  14.2 °C 55.1 °F /  12.8 °C 29.70in /  1005.6hPa SW 8.9mph /  14.3km/h 16mph /  25.7km/h 92% 0.03in /  0.76mm 0 W/m2
06:34 57.5 °F /  14.2 °C 55.1 °F /  12.8 °C 29.69in /  1005.3hPa SW 7.1mph /  11.4km/h 18mph /  29km/h 92% 0.02in /  0.51mm 0 W/m2
06:39 57.4 °F /  14.1 °C 55 °F /  12.8 °C 29.69in /  1005.3hPa SW 6.7mph /  10.8km/h 18mph /  29km/h 92% 0.02in /  0.51mm 0 W/m2
06:44 57.4 °F /  14.1 °C 55 °F /  12.8 °C 29.70in /  1005.6hPa WSW 6mph /  9.7km/h 17mph /  27.4km/h 92% 0.02in /  0.51mm 0 W/m2
06:49 57.4 °F /  14.1 °C 55 °F /  12.8 °C 29.70in /  1005.6hPa WSW 7.7mph /  12.4km/h 17mph /  27.4km/h 92% 0.02in /  0.51mm 0 W/m2
06:54 57.4 °F /  14.1 °C 55 °F /  12.8 °C 29.70in /  1005.6hPa SW 10.2mph /  16.4km/h 19mph /  30.6km/h 92% 0.02in /  0.51mm 0 W/m2
06:59 57.4 °F /  14.1 °C 54.9 °F /  12.7 °C 29.70in /  1005.6hPa SW 9.4mph /  15.1km/h 19mph /  30.6km/h 91.4% 0.02in /  0.51mm 0 W/m2
07:04 57.4 °F /  14.1 °C 54.9 °F /  12.7 °C 29.70in /  1005.6hPa WSW 8.6mph /  13.8km/h 15mph /  24.1km/h 91% 0.01in /  0.25mm 0 W/m2
07:09 57.2 °F /  14 °C 54.7 °F /  12.6 °C 29.69in /  1005.3hPa SW 8.2mph /  13.2km/h 17mph /  27.4km/h 91% 0.01in /  0.25mm 0 W/m2
07:14 57.3 °F /  14.1 °C 54.8 °F /  12.7 °C 29.69in /  1005.3hPa SW 9.7mph /  15.6km/h 17mph /  27.4km/h 91% 0.01in /  0.25mm 0 W/m2
07:19 57.5 °F /  14.2 °C 54.6 °F /  12.6 °C 29.69in /  1005.3hPa SW 11.3mph /  18.2km/h 20mph /  32.2km/h 90.1% 0.01in /  0.25mm 0 W/m2
07:24 57.6 °F /  14.2 °C 54.7 °F /  12.6 °C 29.70in /  1005.6hPa WSW 10.2mph /  16.4km/h 22mph /  35.4km/h 90% 0.00in /  0mm 0 W/m2
07:29 57.4 °F /  14.1 °C 54.5 °F /  12.5 °C 29.70in /  1005.6hPa WSW 10.1mph /  16.3km/h 21mph /  33.8km/h 90% 0.00in /  0mm 0 W/m2
07:34 57.3 °F /  14.1 °C 54.1 °F /  12.3 °C 29.69in /  1005.3hPa WSW 8.4mph /  13.5km/h 21mph /  33.8km/h 89.1% 0.00in /  0mm 0 W/m2
07:39 57.2 °F /  14 °C 54 °F /  12.2 °C 29.69in /  1005.3hPa SW 7.7mph /  12.4km/h 17mph /  27.4km/h 89% 0.00in /  0mm 0 W/m2
07:44 57 °F /  13.9 °C 53.8 °F /  12.1 °C 29.69in /  1005.3hPa WSW 9.8mph /  15.8km/h 19mph /  30.6km/h 89% 0.00in /  0mm 0 W/m2
07:49 56.8 °F /  13.8 °C 53.4 °F /  11.9 °C 29.69in /  1005.3hPa SW 7mph /  11.3km/h 14mph /  22.5km/h 88.3% 0.00in /  0mm 5 W/m2
07:54 56.8 °F /  13.8 °C 53.2 °F /  11.8 °C 29.69in /  1005.3hPa SW 7.8mph /  12.6km/h 16mph /  25.7km/h 88% 0.00in /  0mm 5 W/m2
07:59 56.8 °F /  13.8 °C 53.2 °F /  11.8 °C 29.69in /  1005.3hPa WSW 6.2mph /  10km/h 16mph /  25.7km/h 88% 0.00in /  0mm 7 W/m2
08:04 56.7 °F /  13.7 °C 53.1 °F /  11.7 °C 29.69in /  1005.3hPa WSW 4.7mph /  7.6km/h 10mph /  16.1km/h 88% 0.00in /  0mm 9 W/m2
08:09 56.6 °F /  13.7 °C 53 °F /  11.7 °C 29.70in /  1005.6hPa WSW 7.2mph /  11.6km/h 14mph /  22.5km/h 88% 0.00in /  0mm 12 W/m2
08:14 56.3 °F /  13.5 °C 53 °F /  11.7 °C 29.69in /  1005.3hPa WSW 6.1mph /  9.8km/h 13mph /  20.9km/h 88.7% 0.00in /  0mm 14 W/m2
08:19 56.3 °F /  13.5 °C 53.1 °F /  11.7 °C 29.69in /  1005.3hPa WSW 4.2mph /  6.8km/h 13mph /  20.9km/h 89% 0.00in /  0mm 21 W/m2
08:24 56.3 °F /  13.5 °C 53.1 °F /  11.7 °C 29.69in /  1005.3hPa West 4.9mph /  7.9km/h 13mph /  20.9km/h 89% 0.00in /  0mm 25 W/m2
08:29 56.3 °F /  13.5 °C 53.1 °F /  11.7 °C 29.70in /  1005.6hPa WSW 4.5mph /  7.2km/h 11mph /  17.7km/h 89% 0.00in /  0mm 26 W/m2
08:34 56.3 °F /  13.5 °C 53.1 °F /  11.7 °C 29.70in /  1005.6hPa WSW 8.7mph /  14km/h 18mph /  29km/h 89% 0.00in /  0mm 32 W/m2
08:39 56.5 °F /  13.6 °C 53.2 °F /  11.8 °C 29.69in /  1005.3hPa WSW 5.3mph /  8.5km/h 15mph /  24.1km/h 89% 0.00in /  0mm 32 W/m2
08:44 56.6 °F /  13.7 °C 53.1 °F /  11.7 °C 29.69in /  1005.3hPa WSW 5.6mph /  9km/h 14mph /  22.5km/h 88.3% 0.00in /  0mm 32 W/m2
08:49 56.6 °F /  13.7 °C 53 °F /  11.7 °C 29.69in /  1005.3hPa WSW 2.3mph /  3.7km/h 7mph /  11.3km/h 88% 0.00in /  0mm 51 W/m2
08:54 56.5 °F /  13.6 °C 52.9 °F /  11.6 °C 29.69in /  1005.3hPa SW 6mph /  9.7km/h 15mph /  24.1km/h 88% 0.00in /  0mm 56 W/m2
08:59 56.6 °F /  13.7 °C 53 °F /  11.7 °C 29.69in /  1005.3hPa WSW 2mph /  3.2km/h 15mph /  24.1km/h 88% 0.00in /  0mm 56 W/m2
09:04 56.7 °F /  13.7 °C 53.1 °F /  11.7 °C 29.69in /  1005.3hPa West 2.8mph /  4.5km/h 8mph /  12.9km/h 88% 0.00in /  0mm 62 W/m2
09:09 56.6 °F /  13.7 °C 53.2 °F /  11.8 °C 29.68in /  1005hPa WSW 2.8mph /  4.5km/h 10mph /  16.1km/h 88.6% 0.00in /  0mm 51 W/m2
09:14 56.7 °F /  13.7 °C 53.4 °F /  11.9 °C 29.68in /  1005hPa SW 3.3mph /  5.3km/h 10mph /  16.1km/h 89% 0.00in /  0mm 62 W/m2
09:19 56.7 °F /  13.7 °C 53.4 °F /  11.9 °C 29.68in /  1005hPa SW 5.5mph /  8.9km/h 14mph /  22.5km/h 89% 0.00in /  0mm 60 W/m2
09:24 56.7 °F /  13.7 °C 53.5 °F /  11.9 °C 29.68in /  1005hPa West 4.1mph /  6.6km/h 9mph /  14.5km/h 89% 0.00in /  0mm 53 W/m2
09:29 56.7 °F /  13.7 °C 53.5 °F /  11.9 °C 29.69in /  1005.3hPa West 4.7mph /  7.6km/h 10mph /  16.1km/h 89% 0.00in /  0mm 47 W/m2
09:34 56.8 °F /  13.8 °C 53.6 °F /  12 °C 29.68in /  1005hPa WSW 5.2mph /  8.4km/h 11mph /  17.7km/h 89% 0.00in /  0mm 49 W/m2
09:39 56.9 °F /  13.8 °C 53.7 °F /  12.1 °C 29.68in /  1005hPa SW 8.2mph /  13.2km/h 15mph /  24.1km/h 89% 0.00in /  0mm 44 W/m2
09:44 57 °F /  13.9 °C 53.8 °F /  12.1 °C 29.68in /  1005hPa WSW 4.8mph /  7.7km/h 12mph /  19.3km/h 89% 0.00in /  0mm 44 W/m2
09:49 57.2 °F /  14 °C 54 °F /  12.2 °C 29.68in /  1005hPa SW 7.2mph /  11.6km/h 14mph /  22.5km/h 89% 0.00in /  0mm 56 W/m2
09:54 57.4 °F /  14.1 °C 54 °F /  12.2 °C 29.68in /  1005hPa SW 10.9mph /  17.5km/h 22mph /  35.4km/h 88.5% 0.00in /  0mm 60 W/m2
09:59 57.6 °F /  14.2 °C 54 °F /  12.2 °C 29.68in /  1005hPa SW 7.7mph /  12.4km/h 20mph /  32.2km/h 88% 0.00in /  0mm 63 W/m2
10:04 57.6 °F /  14.2 °C 54 °F /  12.2 °C 29.68in /  1005hPa SW 7.7mph /  12.4km/h 13mph /  20.9km/h 88% 0.00in /  0mm 88 W/m2
10:09 57.7 °F /  14.3 °C 54.1 °F /  12.3 °C 29.68in /  1005hPa SW 9.3mph /  15km/h 20mph /  32.2km/h 88% 0.00in /  0mm 100 W/m2
10:14 57.7 °F /  14.3 °C 54.1 °F /  12.3 °C 29.68in /  1005hPa SW 8.7mph /  14km/h 18mph /  29km/h 88% 0.00in /  0mm 102 W/m2
10:19 57.8 °F /  14.3 °C 54.2 °F /  12.3 °C 29.68in /  1005hPa SW 8.4mph /  13.5km/h 17mph /  27.4km/h 88% 0.00in /  0mm 128 W/m2
10:24 57.9 °F /  14.4 °C 54.3 °F /  12.4 °C 29.68in /  1005hPa SW 11mph /  17.7km/h 21mph /  33.8km/h 88% 0.01in /  0.25mm 139 W/m2
10:29 57.9 °F /  14.4 °C 54.3 °F /  12.4 °C 29.68in /  1005hPa SW 10.5mph /  16.9km/h 21mph /  33.8km/h 88% 0.01in /  0.25mm 135 W/m2
10:34 57.9 °F /  14.4 °C 54.3 °F /  12.4 °C 29.68in /  1005hPa SW 7.4mph /  11.9km/h 19mph /  30.6km/h 88% 0.01in /  0.25mm 174 W/m2
10:39 58 °F /  14.4 °C 54.5 °F /  12.5 °C 29.68in /  1005hPa WSW 10.4mph /  16.7km/h 18mph /  29km/h 88.3% 0.01in /  0.25mm 174 W/m2
10:44 58.1 °F /  14.5 °C 54.9 °F /  12.7 °C 29.68in /  1005hPa SW 8.5mph /  13.7km/h 18mph /  29km/h 89% 0.01in /  0.25mm 144 W/m2
10:49 58 °F /  14.4 °C 54.8 °F /  12.7 °C 29.68in /  1005hPa WSW 8.7mph /  14km/h 15mph /  24.1km/h 89% 0.01in /  0.25mm 65 W/m2
10:54 57.9 °F /  14.4 °C 54.7 °F /  12.6 °C 29.69in /  1005.3hPa WSW 7.6mph /  12.2km/h 16mph /  25.7km/h 89% 0.01in /  0.25mm 51 W/m2
10:59 57.8 °F /  14.3 °C 54.6 °F /  12.6 °C 29.68in /  1005hPa WSW 5.7mph /  9.2km/h 12mph /  19.3km/h 89% 0.01in /  0.25mm 84 W/m2
11:04 57.7 °F /  14.3 °C 54.6 °F /  12.6 °C 29.68in /  1005hPa SW 4.7mph /  7.6km/h 11mph /  17.7km/h 89.1% 0.01in /  0.25mm 95 W/m2
11:09 57.7 °F /  14.3 °C 54.9 °F /  12.7 °C 29.68in /  1005hPa SW 4mph /  6.4km/h 9mph /  14.5km/h 90% 0.01in /  0.25mm 125 W/m2
11:14 57.7 °F /  14.3 °C 54.9 °F /  12.7 °C 29.67in /  1004.6hPa SW 4.2mph /  6.8km/h 9mph /  14.5km/h 90% 0.01in /  0.25mm 153 W/m2
11:19 57.8 °F /  14.3 °C 55.2 °F /  12.9 °C 29.68in /  1005hPa SW 6.8mph /  10.9km/h 14mph /  22.5km/h 90.9% 0.01in /  0.25mm 151 W/m2
11:24 57.9 °F /  14.4 °C 55.2 °F /  12.9 °C 29.67in /  1004.6hPa SW 5.4mph /  8.7km/h 11mph /  17.7km/h 91% 0.00in /  0mm 86 W/m2
11:29 57.9 °F /  14.4 °C 55.2 °F /  12.9 °C 29.67in /  1004.6hPa SW 3.1mph /  5km/h 10mph /  16.1km/h 91% 0.00in /  0mm 95 W/m2
11:34 58.1 °F /  14.5 °C 55.4 °F /  13 °C 29.67in /  1004.6hPa WSW 5.2mph /  8.4km/h 12mph /  19.3km/h 91% 0.00in /  0mm 100 W/m2
11:39 58.1 °F /  14.5 °C 55.3 °F /  12.9 °C 29.67in /  1004.6hPa SW 6.5mph /  10.5km/h 13mph /  20.9km/h 90.5% 0.00in /  0mm 100 W/m2
11:44 58.3 °F /  14.6 °C 55.4 °F /  13 °C 29.67in /  1004.6hPa WSW 5.6mph /  9km/h 12mph /  19.3km/h 90% 0.00in /  0mm 91 W/m2
11:49 58.5 °F /  14.7 °C 55.6 °F /  13.1 °C 29.67in /  1004.6hPa WSW 7.1mph /  11.4km/h 14mph /  22.5km/h 90% 0.00in /  0mm 81 W/m2
11:54 58.5 °F /  14.7 °C 55.3 °F /  12.9 °C 29.67in /  1004.6hPa SW 8.8mph /  14.2km/h 19mph /  30.6km/h 89.1% 0.00in /  0mm 53 W/m2
11:59 58.6 °F /  14.8 °C 55.4 °F /  13 °C 29.67in /  1004.6hPa SW 7.7mph /  12.4km/h 16mph /  25.7km/h 88.9% 0.00in /  0mm 63 W/m2
12:04 58.6 °F /  14.8 °C 55 °F /  12.8 °C 29.66in /  1004.3hPa SW 6.7mph /  10.8km/h 12mph /  19.3km/h 88% 0.00in /  0mm 84 W/m2
12:09 58.7 °F /  14.8 °C 55.1 °F /  12.8 °C 29.66in /  1004.3hPa SW 9.8mph /  15.8km/h 21mph /  33.8km/h 88% 0.00in /  0mm 83 W/m2
12:14 58.8 °F /  14.9 °C 55.2 °F /  12.9 °C 29.66in /  1004.3hPa SW 8.5mph /  13.7km/h 16mph /  25.7km/h 88% 0.00in /  0mm 84 W/m2
12:19 58.9 °F /  14.9 °C 55.3 °F /  12.9 °C 29.65in /  1003.9hPa SW 7.5mph /  12.1km/h 13mph /  20.9km/h 88% 0.00in /  0mm 76 W/m2
12:24 59 °F /  15 °C 55.4 °F /  13 °C 29.66in /  1004.3hPa SW 7mph /  11.3km/h 16mph /  25.7km/h 88% 0.00in /  0mm 69 W/m2
12:29 59.1 °F /  15.1 °C 55.5 °F /  13.1 °C 29.65in /  1003.9hPa SW 11.7mph /  18.8km/h 20mph /  32.2km/h 88% 0.00in /  0mm 88 W/m2
12:34 59.3 °F /  15.2 °C 55.7 °F /  13.2 °C 29.65in /  1003.9hPa SW 9.1mph /  14.6km/h 16mph /  25.7km/h 88% 0.00in /  0mm 90 W/m2
12:39 59.4 °F /  15.2 °C 55.8 °F /  13.2 °C 29.65in /  1003.9hPa SW 9.8mph /  15.8km/h 19mph /  30.6km/h 88% 0.00in /  0mm 134 W/m2
12:44 59.4 °F /  15.2 °C 55.8 °F /  13.2 °C 29.65in /  1003.9hPa SW 9.1mph /  14.6km/h 19mph /  30.6km/h 88% 0.00in /  0mm 125 W/m2
12:49 59.3 °F /  15.2 °C 55.7 °F /  13.2 °C 29.65in /  1003.9hPa SW 7.5mph /  12.1km/h 19mph /  30.6km/h 88% 0.00in /  0mm 107 W/m2
12:54 59.2 °F /  15.1 °C 55.9 °F /  13.3 °C 29.64in /  1003.6hPa SW 8.5mph /  13.7km/h 20mph /  32.2km/h 89% 0.00in /  0mm 109 W/m2
12:59 59.4 °F /  15.2 °C 56.1 °F /  13.4 °C 29.64in /  1003.6hPa SW 7.3mph /  11.7km/h 17mph /  27.4km/h 89% 0.00in /  0mm 121 W/m2
13:04 59.5 °F /  15.3 °C 56.2 °F /  13.4 °C 29.64in /  1003.6hPa SW 9.3mph /  15km/h 17mph /  27.4km/h 89% 0.00in /  0mm 93 W/m2
13:09 59.5 °F /  15.3 °C 56.3 °F /  13.5 °C 29.64in /  1003.6hPa SW 12.3mph /  19.8km/h 24mph /  38.6km/h 89% 0.00in /  0mm 98 W/m2
13:14 59.5 °F /  15.3 °C 56.3 °F /  13.5 °C 29.64in /  1003.6hPa SW 8.5mph /  13.7km/h 24mph /  38.6km/h 89% 0.00in /  0mm 127 W/m2
13:19 59.5 °F /  15.3 °C 56.2 °F /  13.4 °C 29.64in /  1003.6hPa SW 8.9mph /  14.3km/h 22mph /  35.4km/h 89% 0.01in /  0.25mm 135 W/m2
13:24 59.4 °F /  15.2 °C 56.1 °F /  13.4 °C 29.64in /  1003.6hPa SW 9.3mph /  15km/h 18mph /  29km/h 89% 0.01in /  0.25mm 111 W/m2
13:29 59.1 °F /  15.1 °C 56.2 °F /  13.4 °C 29.64in /  1003.6hPa SW 8.5mph /  13.7km/h 22mph /  35.4km/h 90% 0.02in /  0.51mm 105 W/m2
13:34 59 °F /  15 °C 56.1 °F /  13.4 °C 29.64in /  1003.6hPa SW 9.5mph /  15.3km/h 15mph /  24.1km/h 90% 0.02in /  0.51mm 111 W/m2
13:39 59 °F /  15 °C 56.2 °F /  13.4 °C 29.63in /  1003.3hPa SW 10.9mph /  17.5km/h 22mph /  35.4km/h 90.6% 0.02in /  0.51mm 151 W/m2
13:44 59 °F /  15 °C 56.3 °F /  13.5 °C 29.64in /  1003.6hPa SW 10.2mph /  16.4km/h 22mph /  35.4km/h 91% 0.02in /  0.51mm 134 W/m2
13:49 59 °F /  15 °C 56.3 °F /  13.5 °C 29.64in /  1003.6hPa SW 12.4mph /  20km/h 23mph /  37km/h 91% 0.02in /  0.51mm 118 W/m2
13:54 59 °F /  15 °C 56.3 °F /  13.5 °C 29.63in /  1003.3hPa SW 7mph /  11.3km/h 23mph /  37km/h 91% 0.02in /  0.51mm 141 W/m2
13:59 59 °F /  15 °C 56.3 °F /  13.5 °C 29.64in /  1003.6hPa SW 10.2mph /  16.4km/h 23mph /  37km/h 91% 0.03in /  0.76mm 114 W/m2
14:04 58.8 °F /  14.9 °C 56.1 °F /  13.4 °C 29.64in /  1003.6hPa WSW 9.1mph /  14.6km/h 23mph /  37km/h 91% 0.04in /  1.02mm 97 W/m2
14:09 58.8 °F /  14.9 °C 56.3 °F /  13.5 °C 29.64in /  1003.6hPa SW 8.1mph /  13km/h 19mph /  30.6km/h 91.6% 0.06in /  1.52mm 91 W/m2
14:14 58.8 °F /  14.9 °C 56.5 °F /  13.6 °C 29.63in /  1003.3hPa SW 10mph /  16.1km/h 18mph /  29km/h 92% 0.06in /  1.52mm 190 W/m2
14:19 58.9 °F /  14.9 °C 56.6 °F /  13.7 °C 29.63in /  1003.3hPa WSW 11.2mph /  18km/h 20mph /  32.2km/h 92% 0.06in /  1.52mm 188 W/m2
14:24 59.1 °F /  15.1 °C 56.8 °F /  13.8 °C 29.63in /  1003.3hPa SW 8.4mph /  13.5km/h 20mph /  32.2km/h 92% 0.06in /  1.52mm 223 W/m2
14:29 59.4 °F /  15.2 °C 56.9 °F /  13.8 °C 29.63in /  1003.3hPa SW 7.4mph /  11.9km/h 19mph /  30.6km/h 91.8% 0.06in /  1.52mm 165 W/m2
14:34 59.4 °F /  15.2 °C 56.8 °F /  13.8 °C 29.63in /  1003.3hPa SW 8.1mph /  13km/h 19mph /  30.6km/h 91.5% 0.05in /  1.27mm 181 W/m2
14:39 59.5 °F /  15.3 °C 56.8 °F /  13.8 °C 29.62in /  1002.9hPa SW 12.3mph /  19.8km/h 20mph /  32.2km/h 91% 0.05in /  1.27mm 243 W/m2
14:44 59.8 °F /  15.4 °C 57.1 °F /  13.9 °C 29.63in /  1003.3hPa SW 10.7mph /  17.2km/h 21mph /  33.8km/h 91% 0.04in /  1.02mm 209 W/m2
14:49 59.8 °F /  15.4 °C 57.1 °F /  13.9 °C 29.63in /  1003.3hPa SW 10.6mph /  17.1km/h 21mph /  33.8km/h 90.6% 0.04in /  1.02mm 135 W/m2
14:54 59.7 °F /  15.4 °C 56.8 °F /  13.8 °C 29.62in /  1002.9hPa SW 10.9mph /  17.5km/h 20mph /  32.2km/h 90% 0.04in /  1.02mm 223 W/m2
14:59 59.7 °F /  15.4 °C 56.8 °F /  13.8 °C 29.62in /  1002.9hPa SW 8.3mph /  13.4km/h 17mph /  27.4km/h 90% 0.03in /  0.76mm 223 W/m2
15:04 59.5 °F /  15.3 °C 56.7 °F /  13.7 °C 29.62in /  1002.9hPa SW 8.4mph /  13.5km/h 18mph /  29km/h 90.3% 0.03in /  0.76mm 149 W/m2
15:09 59.5 °F /  15.3 °C 56.8 °F /  13.8 °C 29.62in /  1002.9hPa SW 9.3mph /  15km/h 16mph /  25.7km/h 91% 0.02in /  0.51mm 123 W/m2
15:14 59.5 °F /  15.3 °C 56.8 °F /  13.8 °C 29.62in /  1002.9hPa SW 6.9mph /  11.1km/h 14mph /  22.5km/h 91% 0.01in /  0.25mm 148 W/m2
15:19 59.7 °F /  15.4 °C 57 °F /  13.9 °C 29.62in /  1002.9hPa SW 7.9mph /  12.7km/h 15mph /  24.1km/h 90.9% 0.00in /  0mm 148 W/m2
15:24 59.9 °F /  15.5 °C 57 °F /  13.9 °C 29.61in /  1002.6hPa SW 10.3mph /  16.6km/h 16mph /  25.7km/h 90.2% 0.00in /  0mm 135 W/m2
15:29 59.9 °F /  15.5 °C 57 °F /  13.9 °C 29.61in /  1002.6hPa SW 7mph /  11.3km/h 16mph /  25.7km/h 90% 0.00in /  0mm 174 W/m2
15:34 59.9 °F /  15.5 °C 57 °F /  13.9 °C 29.61in /  1002.6hPa SW 8.8mph /  14.2km/h 16mph /  25.7km/h 90% 0.00in /  0mm 230 W/m2
15:39 60 °F /  15.6 °C 57.1 °F /  13.9 °C 29.61in /  1002.6hPa SW 9.4mph /  15.1km/h 19mph /  30.6km/h 90% 0.01in /  0.25mm 158 W/m2
15:44 60.2 °F /  15.7 °C 57.2 °F /  14 °C 29.61in /  1002.6hPa SW 9mph /  14.5km/h 18mph /  29km/h 89.9% 0.01in /  0.25mm 91 W/m2
15:49 60.3 °F /  15.7 °C 57 °F /  13.9 °C 29.62in /  1002.9hPa SW 11.6mph /  18.7km/h 22mph /  35.4km/h 89% 0.01in /  0.25mm 86 W/m2
15:54 59.9 °F /  15.5 °C 56.6 °F /  13.7 °C 29.64in /  1003.6hPa West 11.7mph /  18.8km/h 22mph /  35.4km/h 89% 0.03in /  0.76mm 35 W/m2
15:59 58.3 °F /  14.6 °C 55.2 °F /  12.9 °C 29.64in /  1003.6hPa WNW 8.3mph /  13.4km/h 19mph /  30.6km/h 89.6% 0.05in /  1.27mm 63 W/m2
16:04 57.5 °F /  14.2 °C 54.6 °F /  12.6 °C 29.64in /  1003.6hPa WNW 10.8mph /  17.4km/h 20mph /  32.2km/h 90% 0.06in /  1.52mm 100 W/m2
16:09 56.9 °F /  13.8 °C 54.3 °F /  12.4 °C 29.64in /  1003.6hPa WNW 8.7mph /  14km/h 18mph /  29km/h 91% 0.06in /  1.52mm 97 W/m2
16:14 56.6 °F /  13.7 °C 54.1 °F /  12.3 °C 29.64in /  1003.6hPa West 8.4mph /  13.5km/h 17mph /  27.4km/h 91.3% 0.06in /  1.52mm 49 W/m2
16:19 56.2 °F /  13.4 °C 53.9 °F /  12.2 °C 29.65in /  1003.9hPa WNW 9.7mph /  15.6km/h 18mph /  29km/h 92% 0.06in /  1.52mm 32 W/m2
16:24 55.9 °F /  13.3 °C 53.5 °F /  11.9 °C 29.65in /  1003.9hPa WNW 7mph /  11.3km/h 16mph /  25.7km/h 92% 0.08in /  2.03mm 23 W/m2
16:29 55.6 °F /  13.1 °C 53.3 °F /  11.8 °C 29.65in /  1003.9hPa WNW 4.8mph /  7.7km/h 13mph /  20.9km/h 92% 0.09in /  2.29mm 33 W/m2
16:34 55.4 °F /  13 °C 53.1 °F /  11.7 °C 29.65in /  1003.9hPa West 5.2mph /  8.4km/h 11mph /  17.7km/h 92% 0.09in /  2.29mm 51 W/m2
16:39 55.4 °F /  13 °C 53.3 °F /  11.8 °C 29.66in /  1004.3hPa West 4.2mph /  6.8km/h 10mph /  16.1km/h 92.5% 0.09in /  2.29mm 51 W/m2
16:44 55.5 °F /  13.1 °C 53.5 °F /  11.9 °C 29.66in /  1004.3hPa WNW 4.1mph /  6.6km/h 10mph /  16.1km/h 93% 0.09in /  2.29mm 47 W/m2
16:49 55.4 °F /  13 °C 53.4 °F /  11.9 °C 29.65in /  1003.9hPa West 4.8mph /  7.7km/h 9mph /  14.5km/h 93% 0.09in /  2.29mm 40 W/m2
16:54 55.4 °F /  13 °C 53.4 °F /  11.9 °C 29.65in /  1003.9hPa WNW 4.8mph /  7.7km/h 8mph /  12.9km/h 93% 0.09in /  2.29mm 39 W/m2
16:59 55.4 °F /  13 °C 53.4 °F /  11.9 °C 29.65in /  1003.9hPa West 4.6mph /  7.4km/h 8mph /  12.9km/h 93% 0.06in /  1.52mm 39 W/m2
17:04 55.4 °F /  13 °C 53.4 °F /  11.9 °C 29.65in /  1003.9hPa West 4.3mph /  6.9km/h 8mph /  12.9km/h 93% 0.05in /  1.27mm 26 W/m2
17:09 55.4 °F /  13 °C 53.4 °F /  11.9 °C 29.65in /  1003.9hPa West 3.9mph /  6.3km/h 8mph /  12.9km/h 93% 0.05in /  1.27mm 23 W/m2
17:14 55.5 °F /  13.1 °C 53.5 °F /  11.9 °C 29.65in /  1003.9hPa West 2.7mph /  4.3km/h 7mph /  11.3km/h 93.2% 0.05in /  1.27mm 21 W/m2
17:19 55.5 °F /  13.1 °C 53.8 °F /  12.1 °C 29.65in /  1003.9hPa West 2.7mph /  4.3km/h 6mph /  9.7km/h 93.7% 0.05in /  1.27mm 16 W/m2
17:24 55.6 °F /  13.1 °C 54 °F /  12.2 °C 29.65in /  1003.9hPa West 4.6mph /  7.4km/h 9mph /  14.5km/h 94% 0.04in /  1.02mm 16 W/m2
17:29 55.6 °F /  13.1 °C 54 °F /  12.2 °C 29.66in /  1004.3hPa West 4.3mph /  6.9km/h 8mph /  12.9km/h 94% 0.02in /  0.51mm 18 W/m2
17:34 55.5 °F /  13.1 °C 53.9 °F /  12.2 °C 29.66in /  1004.3hPa West 5.7mph /  9.2km/h 12mph /  19.3km/h 94% 0.02in /  0.51mm 16 W/m2
17:39 55.4 °F /  13 °C 53.8 °F /  12.1 °C 29.66in /  1004.3hPa West 5.2mph /  8.4km/h 12mph /  19.3km/h 94% 0.02in /  0.51mm 19 W/m2
17:44 55.4 °F /  13 °C 53.8 °F /  12.1 °C 29.66in /  1004.3hPa West 3.9mph /  6.3km/h 9mph /  14.5km/h 94% 0.02in /  0.51mm 16 W/m2
17:49 55.4 °F /  13 °C 53.8 °F /  12.1 °C 29.67in /  1004.6hPa West 5.8mph /  9.3km/h 11mph /  17.7km/h 94% 0.02in /  0.51mm 7 W/m2
17:54 55.4 °F /  13 °C 53.8 °F /  12.1 °C 29.67in /  1004.6hPa WNW 6.1mph /  9.8km/h 11mph /  17.7km/h 94% 0.02in /  0.51mm 7 W/m2
17:59 55 °F /  12.8 °C 53.4 °F /  11.9 °C 29.67in /  1004.6hPa WNW 6.7mph /  10.8km/h 15mph /  24.1km/h 94% 0.02in /  0.51mm 9 W/m2
18:04 54.7 °F /  12.6 °C 53.1 °F /  11.7 °C 29.67in /  1004.6hPa WNW 5.9mph /  9.5km/h 10mph /  16.1km/h 94% 0.02in /  0.51mm 9 W/m2
18:09 54.4 °F /  12.4 °C 52.8 °F /  11.6 °C 29.67in /  1004.6hPa WNW 5mph /  8km/h 12mph /  19.3km/h 94% 0.03in /  0.76mm 5 W/m2
18:14 54.3 °F /  12.4 °C 52.7 °F /  11.5 °C 29.67in /  1004.6hPa WNW 4.1mph /  6.6km/h 12mph /  19.3km/h 94% 0.02in /  0.51mm 0 W/m2
18:19 54.3 °F /  12.4 °C 52.7 °F /  11.5 °C 29.67in /  1004.6hPa WNW 2.9mph /  4.7km/h 6mph /  9.7km/h 94% 0.02in /  0.51mm 0 W/m2
18:24 54.3 °F /  12.4 °C 52.7 °F /  11.5 °C 29.67in /  1004.6hPa WNW 2mph /  3.2km/h 5mph /  8km/h 94% 0.02in /  0.51mm 0 W/m2
18:29 54.3 °F /  12.4 °C 52.7 °F /  11.5 °C 29.67in /  1004.6hPa WNW 1.9mph /  3.1km/h 5mph /  8km/h 94% 0.02in /  0.51mm 0 W/m2
18:34 54.2 °F /  12.3 °C 52.6 °F /  11.4 °C 29.68in /  1005hPa WNW 1.3mph /  2.1km/h 4mph /  6.4km/h 94% 0.02in /  0.51mm 0 W/m2
18:39 54.1 °F /  12.3 °C 52.5 °F /  11.4 °C 29.68in /  1005hPa WNW 1.2mph /  1.9km/h 4mph /  6.4km/h 94% 0.02in /  0.51mm 0 W/m2
18:44 54.1 °F /  12.3 °C 52.5 °F /  11.4 °C 29.68in /  1005hPa WNW 0.8mph /  1.3km/h 4mph /  6.4km/h 94% 0.01in /  0.25mm 0 W/m2
18:49 54.1 °F /  12.3 °C 52.5 °F /  11.4 °C 29.68in /  1005hPa WNW 0.9mph /  1.4km/h 4mph /  6.4km/h 94% 0.01in /  0.25mm 0 W/m2
18:54 54.1 °F /  12.3 °C 52.5 °F /  11.4 °C 29.68in /  1005hPa WNW 0.1mph /  0.2km/h 3mph /  4.8km/h 94% 0.01in /  0.25mm 0 W/m2
18:59 54.1 °F /  12.3 °C 52.5 °F /  11.4 °C 29.68in /  1005hPa WNW 1mph /  1.6km/h 4mph /  6.4km/h 94% 0.01in /  0.25mm 0 W/m2
19:04 54 °F /  12.2 °C 52.4 °F /  11.3 °C 29.68in /  1005hPa WNW 0.6mph /  1km/h 4mph /  6.4km/h 94% 0.01in /  0.25mm 0 W/m2
19:09 54 °F /  12.2 °C 52.3 °F /  11.3 °C 29.67in /  1004.6hPa WNW 0.3mph /  0.5km/h 4mph /  6.4km/h 94% 0.00in /  0mm 0 W/m2
19:14 54 °F /  12.2 °C 52.3 °F /  11.3 °C 29.67in /  1004.6hPa WNW 0.6mph /  1km/h 4mph /  6.4km/h 94% 0.00in /  0mm 0 W/m2
19:19 54 °F /  12.2 °C 52.3 °F /  11.3 °C 29.67in /  1004.6hPa Calm   4mph /  6.4km/h 94% 0.00in /  0mm 0 W/m2
19:24 54 °F /  12.2 °C 52.3 °F /  11.3 °C 29.67in /  1004.6hPa Calm     94% 0.00in /  0mm 0 W/m2
19:29 54 °F /  12.2 °C 52.4 °F /  11.3 °C 29.67in /  1004.6hPa Calm     94% 0.00in /  0mm 0 W/m2
19:34 54.1 °F /  12.3 °C 52.5 °F /  11.4 °C 29.67in /  1004.6hPa Calm     94% 0.00in /  0mm 0 W/m2
19:39 54 °F /  12.2 °C 52.4 °F /  11.3 °C 29.67in /  1004.6hPa WNW 0.3mph /  0.5km/h 2mph /  3.2km/h 94% 0.00in /  0mm 0 W/m2
19:44 53.9 °F /  12.2 °C 52.2 °F /  11.2 °C 29.67in /  1004.6hPa WNW 0.2mph /  0.3km/h 1mph /  1.6km/h 94% 0.00in /  0mm 0 W/m2
19:49 53.8 °F /  12.1 °C 52.2 °F /  11.2 °C 29.67in /  1004.6hPa Calm     94% 0.00in /  0mm 0 W/m2
19:54 53.8 °F /  12.1 °C 52.2 °F /  11.2 °C 29.67in /  1004.6hPa Calm     94% 0.00in /  0mm 0 W/m2
19:59 53.9 °F /  12.2 °C 52.2 °F /  11.2 °C 29.67in /  1004.6hPa WNW 0.1mph /  0.2km/h 1mph /  1.6km/h 94% 0.00in /  0mm 0 W/m2
20:04 53.9 °F /  12.2 °C 52.3 °F /  11.3 °C 29.67in /  1004.6hPa Calm   1mph /  1.6km/h 94% 0.00in /  0mm 0 W/m2
20:09 53.9 °F /  12.2 °C 52.3 °F /  11.3 °C 29.68in /  1005hPa Calm     94% 0.00in /  0mm 0 W/m2
20:14 53.9 °F /  12.2 °C 52.2 °F /  11.2 °C 29.67in /  1004.6hPa Calm     94% 0.00in /  0mm 0 W/m2
20:19 53.8 °F /  12.1 °C 52.2 °F /  11.2 °C 29.67in /  1004.6hPa Calm   1mph /  1.6km/h 94% 0.00in /  0mm 0 W/m2
20:24 53.6 °F /  12 °C 52 °F /  11.1 °C 29.67in /  1004.6hPa Calm   1mph /  1.6km/h 94% 0.00in /  0mm 0 W/m2
20:29 53.6 °F /  12 °C 52 °F /  11.1 °C 29.67in /  1004.6hPa Calm     94% 0.00in /  0mm 0 W/m2
20:34 53.4 °F /  11.9 °C 51.8 °F /  11 °C 29.67in /  1004.6hPa WNW 0.5mph /  0.8km/h 2mph /  3.2km/h 94% 0.00in /  0mm 0 W/m2
20:39 53.4 °F /  11.9 °C 51.8 °F /  11 °C 29.67in /  1004.6hPa Calm   2mph /  3.2km/h 94% 0.00in /  0mm 0 W/m2
20:44 53.3 °F /  11.8 °C 51.7 °F /  10.9 °C 29.67in /  1004.6hPa WNW 0.1mph /  0.2km/h 2mph /  3.2km/h 94% 0.00in /  0mm 0 W/m2
20:49 53.2 °F /  11.8 °C 51.6 °F /  10.9 °C 29.67in /  1004.6hPa Calm     94% 0.00in /  0mm 0 W/m2
20:54 53.2 °F /  11.8 °C 51.6 °F /  10.9 °C 29.67in /  1004.6hPa WNW 0.2mph /  0.3km/h 1mph /  1.6km/h 94% 0.00in /  0mm 0 W/m2
20:59 53.2 °F /  11.8 °C 51.6 °F /  10.9 °C 29.68in /  1005hPa Calm   1mph /  1.6km/h 94% 0.00in /  0mm 0 W/m2
21:04 53.2 °F /  11.8 °C 51.6 °F /  10.9 °C 29.68in /  1005hPa WNW 0.4mph /  0.6km/h 3mph /  4.8km/h 94% 0.00in /  0mm 0 W/m2
21:09 53.2 °F /  11.8 °C 51.6 °F /  10.9 °C 29.69in /  1005.3hPa WNW 0.5mph /  0.8km/h 3mph /  4.8km/h 94% 0.01in /  0.25mm 0 W/m2
21:14 53.2 °F /  11.8 °C 51.5 °F /  10.8 °C 29.69in /  1005.3hPa WNW 1.7mph /  2.7km/h 4mph /  6.4km/h 94% 0.01in /  0.25mm 0 W/m2
21:19 53.1 °F /  11.7 °C 51.4 °F /  10.8 °C 29.69in /  1005.3hPa WNW 0.6mph /  1km/h 3mph /  4.8km/h 94% 0.01in /  0.25mm 0 W/m2
21:24 53.1 °F /  11.7 °C 51.4 °F /  10.8 °C 29.69in /  1005.3hPa WNW 1.9mph /  3.1km/h 4mph /  6.4km/h 94% 0.01in /  0.25mm 0 W/m2
21:29 53.1 °F /  11.7 °C 51.4 °F /  10.8 °C 29.69in /  1005.3hPa WNW 0.5mph /  0.8km/h 4mph /  6.4km/h 94% 0.01in /  0.25mm 0 W/m2
21:34 53.1 °F /  11.7 °C 51.4 °F /  10.8 °C 29.70in /  1005.6hPa WNW 0.2mph /  0.3km/h 2mph /  3.2km/h 94% 0.01in /  0.25mm 0 W/m2
21:39 53 °F /  11.7 °C 51.4 °F /  10.8 °C 29.70in /  1005.6hPa WNW 0.2mph /  0.3km/h 2mph /  3.2km/h 94% 0.01in /  0.25mm 0 W/m2
21:44 53.1 °F /  11.7 °C 51.4 °F /  10.8 °C 29.70in /  1005.6hPa WNW 0.5mph /  0.8km/h 3mph /  4.8km/h 94% 0.02in /  0.51mm 0 W/m2
21:49 53.1 °F /  11.7 °C 51.4 °F /  10.8 °C 29.70in /  1005.6hPa WNW 0.2mph /  0.3km/h 2mph /  3.2km/h 94% 0.02in /  0.51mm 0 W/m2
21:54 53.1 °F /  11.7 °C 51.4 °F /  10.8 °C 29.70in /  1005.6hPa WNW 1.2mph /  1.9km/h 5mph /  8km/h 94% 0.02in /  0.51mm 0 W/m2
21:59 53.1 °F /  11.7 °C 51.4 °F /  10.8 °C 29.70in /  1005.6hPa WNW 1.8mph /  2.9km/h 5mph /  8km/h 94% 0.02in /  0.51mm 0 W/m2
22:04 53.1 °F /  11.7 °C 51.4 °F /  10.8 °C 29.70in /  1005.6hPa WNW 0.3mph /  0.5km/h 3mph /  4.8km/h 94% 0.03in /  0.76mm 0 W/m2
22:09 53.1 °F /  11.7 °C 51.4 °F /  10.8 °C 29.70in /  1005.6hPa WNW 0.1mph /  0.2km/h 2mph /  3.2km/h 94% 0.03in /  0.76mm 0 W/m2
22:14 53.1 °F /  11.7 °C 51.4 °F /  10.8 °C 29.70in /  1005.6hPa WNW 0.2mph /  0.3km/h 2mph /  3.2km/h 94% 0.03in /  0.76mm 0 W/m2
22:19 53.1 °F /  11.7 °C 51.4 °F /  10.8 °C 29.70in /  1005.6hPa WNW 0.6mph /  1km/h 3mph /  4.8km/h 94% 0.03in /  0.76mm 0 W/m2
22:24 53.1 °F /  11.7 °C 51.4 °F /  10.8 °C 29.70in /  1005.6hPa WNW 0.6mph /  1km/h 3mph /  4.8km/h 94% 0.04in /  1.02mm 0 W/m2
22:29 53 °F /  11.7 °C 51.4 °F /  10.8 °C 29.71in /  1006hPa WNW 1.6mph /  2.6km/h 4mph /  6.4km/h 94% 0.04in /  1.02mm 0 W/m2
22:34 52.8 °F /  11.6 °C 51.2 °F /  10.7 °C 29.71in /  1006hPa West 2.7mph /  4.3km/h 6mph /  9.7km/h 94% 0.04in /  1.02mm 0 W/m2
22:39 52.7 °F /  11.5 °C 51.1 °F /  10.6 °C 29.70in /  1005.6hPa West 0.6mph /  1km/h 3mph /  4.8km/h 94% 0.04in /  1.02mm 0 W/m2
22:44 52.6 °F /  11.4 °C 51 °F /  10.6 °C 29.71in /  1006hPa West 1.8mph /  2.9km/h 4mph /  6.4km/h 94% 0.03in /  0.76mm 0 W/m2
22:49 52.3 °F /  11.3 °C 50.7 °F /  10.4 °C 29.71in /  1006hPa WSW 3.8mph /  6.1km/h 8mph /  12.9km/h 94% 0.04in /  1.02mm 0 W/m2
22:54 52.2 °F /  11.2 °C 50.6 °F /  10.3 °C 29.71in /  1006hPa SW 2.8mph /  4.5km/h 8mph /  12.9km/h 94% 0.04in /  1.02mm 0 W/m2
22:59 51.8 °F /  11 °C 50.2 °F /  10.1 °C 29.71in /  1006hPa West 3.4mph /  5.5km/h 7mph /  11.3km/h 94% 0.03in /  0.76mm 0 W/m2
23:04 51.6 °F /  10.9 °C 50 °F /  10 °C 29.71in /  1006hPa West 3mph /  4.8km/h 7mph /  11.3km/h 94% 0.02in /  0.51mm 0 W/m2
23:09 51.4 °F /  10.8 °C 49.8 °F /  9.9 °C 29.71in /  1006hPa West 2.9mph /  4.7km/h 6mph /  9.7km/h 94% 0.02in /  0.51mm 0 W/m2
23:14 51.4 °F /  10.8 °C 49.8 °F /  9.9 °C 29.71in /  1006hPa West 1.4mph /  2.3km/h 6mph /  9.7km/h 94% 0.02in /  0.51mm 0 W/m2
23:19 51.3 °F /  10.7 °C 49.7 °F /  9.8 °C 29.70in /  1005.6hPa West 1.3mph /  2.1km/h 6mph /  9.7km/h 94% 0.02in /  0.51mm 0 W/m2
23:24 51.3 °F /  10.7 °C 49.6 °F /  9.8 °C 29.70in /  1005.6hPa West 0.5mph /  0.8km/h 3mph /  4.8km/h 94% 0.02in /  0.51mm 0 W/m2
23:29 51.3 °F /  10.7 °C 49.6 °F /  9.8 °C 29.71in /  1006hPa West 0.3mph /  0.5km/h 3mph /  4.8km/h 94% 0.02in /  0.51mm 0 W/m2
23:34 51.3 °F /  10.7 °C 49.6 °F /  9.8 °C 29.71in /  1006hPa West 0.5mph /  0.8km/h 3mph /  4.8km/h 94% 0.02in /  0.51mm 0 W/m2
23:39 51.2 °F /  10.7 °C 49.6 °F /  9.8 °C 29.71in /  1006hPa West 1.1mph /  1.8km/h 4mph /  6.4km/h 94% 0.02in /  0.51mm 0 W/m2
23:44 51.1 °F /  10.6 °C 49.4 °F /  9.7 °C 29.71in /  1006hPa West 1.3mph /  2.1km/h 6mph /  9.7km/h 93.9% 0.02in /  0.51mm 0 W/m2
23:49 50.9 °F /  10.5 °C 49.1 °F /  9.5 °C 29.71in /  1006hPa West 0.7mph /  1.1km/h 3mph /  4.8km/h 93.5% 0.02in /  0.51mm 0 W/m2
23:54 50.9 °F /  10.5 °C 48.9 °F /  9.4 °C 29.72in /  1006.3hPa West 0.6mph /  1km/h 3mph /  4.8km/h 93% 0.02in /  0.51mm 0 W/m2
23:59 50.9 °F /  10.5 °C 48.9 °F /  9.4 °C 29.72in /  1006.3hPa West 0.5mph /  0.8km/h 5mph /  8km/h 93% 0.02in /  0.51mm 0 W/m2
Bath Spa Weather
Compliments of Weather Underground - 2 mb